Latest Weather Observations for Melville Water

IDW60801

Issued at 6:02 pm WST Thursday 30 July 2015 (issued every 30 minutes, with the page automatically refreshed every 10 minutes)

About weather observations | Map of weather stations | Latest weather observations for WA | Other Formats
Station Details ID: 009091 Name: INNER DOLPHIN PYLON Lat: -31.99 Lon: 115.83 Height: 0.0 m
Data from the previous 72 hours. | See also: Recent months at Melville Water
Date/Time
WST
Temp
°C
App
Temp
°C
Dew
Point
Rel
Hum
%
Delta-T
°C
Wind Press
QNH
hPa
Press
MSL
hPa
Rain
since 9 am
mm
Dir
 
Spd
km/h
Gust
km/h
Spd
kts
Gust
kts
30/06:00pm - - - - - NNE 26 33 14 18 - - -
30/05:30pm - - - - - NNE 32 39 17 21 - - -
30/05:25pm - - - - - NNE 30 39 16 21 - - -
30/05:00pm - - - - - NNE 17 20 9 11 - - -
30/04:30pm - - - - - NNE 19 30 10 16 - - -
30/04:00pm - - - - - NNE 20 28 11 15 - - -
30/03:30pm - - - - - NE 15 20 8 11 - - -
30/03:00pm - - - - - NNE 13 19 7 10 - - -
30/02:30pm - - - - - NNE 13 20 7 11 - - -
30/02:00pm - - - - - NNE 19 24 10 13 - - -
30/01:30pm - - - - - NNE 20 32 11 17 - - -
30/01:00pm - - - - - NE 19 22 10 12 - - -
30/12:30pm - - - - - NE 19 22 10 12 - - -
30/12:00pm - - - - - ENE 17 20 9 11 - - -
30/11:30am - - - - - NE 17 22 9 12 - - -
30/11:00am - - - - - NE 13 19 7 10 - - -
30/10:30am - - - - - ENE 13 17 7 9 - - -
30/10:00am - - - - - ENE 11 13 6 7 - - -
30/09:30am - - - - - ENE 11 11 6 6 - - -
30/09:00am - - - - - ENE 7 9 4 5 - - -
30/08:30am - - - - - ENE 7 9 4 5 - - -
30/08:00am - - - - - ENE 9 11 5 6 - - -
30/07:30am - - - - - ENE 13 15 7 8 - - -
30/07:00am - - - - - ENE 11 11 6 6 - - -
30/06:30am - - - - - ENE 13 17 7 9 - - -
30/06:00am - - - - - ENE 13 15 7 8 - - -
30/05:30am - - - - - NE 15 19 8 10 - - -
30/05:00am - - - - - ENE 13 15 7 8 - - -
30/04:30am - - - - - E 7 9 4 5 - - -
30/04:00am - - - - - NE 11 15 6 8 - - -
30/03:30am - - - - - NE 13 15 7 8 - - -
30/03:00am - - - - - ENE 13 15 7 8 - - -
30/02:30am - - - - - NE 7 11 4 6 - - -
30/02:00am - - - - - E 2 6 1 3 - - -
30/01:30am - - - - - NE 6 7 3 4 - - -
30/01:00am - - - - - SSE 4 4 2 2 - - -
30/12:30am - - - - - NE 2 2 1 1 - - -
30/12:00am - - - - - E 4 6 2 3 - - -
 
Date/Time
WST
Temp
°C
App
Temp
°C
Dew
Point
Rel
Hum
%
Delta-T
°C
Wind Press
QNH
hPa
Press
MSL
hPa
Rain
since 9 am
mm
Dir
 
Spd
km/h
Gust
km/h
Spd
kts
Gust
kts
29/11:30pm - - - - - ENE 7 9 4 5 - - -
29/11:00pm - - - - - S 6 7 3 4 - - -
29/10:30pm - - - - - SW 11 13 6 7 - - -
29/10:00pm - - - - - SSE 9 20 5 11 - - -
29/09:30pm - - - - - ENE 4 7 2 4 - - -
29/09:00pm - - - - - ENE 4 6 2 3 - - -
29/08:30pm - - - - - NE 2 2 1 1 - - -
29/08:00pm - - - - - NNW 6 6 3 3 - - -
29/07:30pm - - - - - NE 4 4 2 2 - - -
29/07:00pm - - - - - NNE 2 4 1 2 - - -
29/06:30pm - - - - - NNW 6 7 3 4 - - -
29/06:00pm - - - - - NNW 7 9 4 5 - - -
29/05:30pm - - - - - N 6 7 3 4 - - -
29/05:00pm - - - - - NNW 9 13 5 7 - - -
29/04:30pm - - - - - NNW 11 17 6 9 - - -
29/04:00pm - - - - - NNW 13 19 7 10 - - -
29/03:30pm - - - - - NNW 15 20 8 11 - - -
29/03:00pm - - - - - NNW 15 22 8 12 - - -
29/02:30pm - - - - - NNW 13 19 7 10 - - -
29/02:00pm - - - - - N 17 26 9 14 - - -
29/01:30pm - - - - - NNW 11 17 6 9 - - -
29/01:00pm - - - - - NNW 13 19 7 10 - - -
29/12:30pm - - - - - NNW 9 15 5 8 - - -
29/12:00pm - - - - - NNW 9 15 5 8 - - -
29/11:30am - - - - - N 9 15 5 8 - - -
29/11:00am - - - - - NNW 6 13 3 7 - - -
29/10:30am - - - - - CALM 0 2 0 1 - - -
29/10:00am - - - - - NE 9 11 5 6 - - -
29/09:30am - - - - - NW 2 9 1 5 - - -
29/09:00am - - - - - ENE 7 11 4 6 - - -
29/08:30am - - - - - E 6 6 3 3 - - -
29/08:00am - - - - - E 7 9 4 5 - - -
29/07:30am - - - - - NE 9 11 5 6 - - -
29/07:00am - - - - - ENE 6 7 3 4 - - -
29/06:30am - - - - - E 6 7 3 4 - - -
29/06:00am - - - - - ENE 6 7 3 4 - - -
29/05:30am - - - - - ENE 7 9 4 5 - - -
29/05:00am - - - - - NE 11 15 6 8 - - -
29/04:30am - - - - - NE 9 11 5 6 - - -
29/04:00am - - - - - ENE 9 13 5 7 - - -
29/03:30am - - - - - NE 13 17 7 9 - - -
29/03:00am - - - - - NE 13 17 7 9 - - -
29/02:30am - - - - - NE 19 20 10 11 - - -
29/02:00am - - - - - NE 11 15 6 8 - - -
29/01:30am - - - - - NNE 7 9 4 5 - - -
29/01:00am - - - - - ENE 6 7 3 4 - - -
29/12:30am - - - - - ENE 4 6 2 3 - - -
29/12:00am - - - - - ENE 9 11 5 6 - - -
 
Date/Time
WST
Temp
°C
App
Temp
°C
Dew
Point
Rel
Hum
%
Delta-T
°C
Wind Press
QNH
hPa
Press
MSL
hPa
Rain
since 9 am
mm
Dir
 
Spd
km/h
Gust
km/h
Spd
kts
Gust
kts
28/11:30pm - - - - - NE 9 11 5 6 - - -
28/11:00pm - - - - - NNE 6 9 3 5 - - -
28/10:30pm - - - - - N 7 7 4 4 - - -
28/10:00pm - - - - - ENE 6 7 3 4 - - -
28/09:30pm - - - - - E 9 11 5 6 - - -
28/09:00pm - - - - - ESE 9 11 5 6 - - -
28/08:30pm - - - - - SSE 4 6 2 3 - - -
28/08:00pm - - - - - ESE 2 4 1 2 - - -
28/07:30pm - - - - - E 6 7 3 4 - - -
28/07:00pm - - - - - E 9 11 5 6 - - -
28/06:30pm - - - - - ESE 11 15 6 8 - - -
28/06:00pm - - - - - E 11 17 6 9 - - -
28/05:30pm - - - - - E 15 20 8 11 - - -
28/05:00pm - - - - - ENE 13 19 7 10 - - -
28/04:30pm - - - - - ENE 19 26 10 14 - - -
28/04:00pm - - - - - ENE 20 28 11 15 - - -
28/03:30pm - - - - - NE 26 37 14 20 - - -
28/03:00pm - - - - - NE 22 32 12 17 - - -
28/02:30pm - - - - - NE 24 33 13 18 - - -
28/02:00pm - - - - - NNE 24 33 13 18 - - -
28/01:30pm - - - - - NE 30 43 16 23 - - -
28/01:00pm - - - - - NNE 30 41 16 22 - - -
28/12:30pm - - - - - NNE 28 39 15 21 - - -
28/12:00pm - - - - - NNE 30 41 16 22 - - -
28/11:30am - - - - - NNE 33 46 18 25 - - -
28/11:00am - - - - - NNE 35 46 19 25 - - -
28/10:30am - - - - - NE 20 30 11 16 - - -
28/10:00am - - - - - NE 22 28 12 15 - - -
28/09:30am - - - - - NE 24 32 13 17 - - -
28/09:00am - - - - - NE 26 44 14 24 - - -
28/08:30am - - - - - NE 26 37 14 20 - - -
28/08:00am - - - - - NE 28 39 15 21 - - -
28/07:30am - - - - - ENE 24 32 13 17 - - -
28/07:00am - - - - - NE 17 28 9 15 - - -
28/06:30am - - - - - NE 19 26 10 14 - - -
28/06:00am - - - - - ENE 19 22 10 12 - - -
28/05:30am - - - - - E 11 13 6 7 - - -
28/05:00am - - - - - ENE 13 17 7 9 - - -
28/04:30am - - - - - ENE 13 19 7 10 - - -
28/04:00am - - - - - NE 19 22 10 12 - - -
28/03:30am - - - - - NE 19 24 10 13 - - -
28/03:00am - - - - - NE 22 26 12 14 - - -
28/02:30am - - - - - ENE 19 28 10 15 - - -
28/02:00am - - - - - ENE 9 13 5 7 - - -
28/01:30am - - - - - NE 17 19 9 10 - - -
28/01:00am - - - - - ENE 19 28 10 15 - - -
28/12:30am - - - - - NE 15 20 8 11 - - -
28/12:00am - - - - - ENE 13 17 7 9 - - -
 
Date/Time
WST
Temp
°C
App
Temp
°C
Dew
Point
Rel
Hum
%
Delta-T
°C
Wind Press
QNH
hPa
Press
MSL
hPa
Rain
since 9 am
mm
Dir
 
Spd
km/h
Gust
km/h
Spd
kts
Gust
kts
27/11:30pm - - - - - E 15 19 8 10 - - -
27/11:00pm - - - - - ENE 15 19 8 10 - - -
27/10:30pm - - - - - E 11 13 6 7 - - -
27/10:00pm - - - - - E 11 13 6 7 - - -
27/09:30pm - - - - - ENE 6 7 3 4 - - -
27/09:00pm - - - - - E 6 7 3 4 - - -
27/08:30pm - - - - - ENE 7 9 4 5 - - -
27/08:00pm - - - - - ENE 4 7 2 4 - - -
27/07:30pm - - - - - E 6 6 3 3 - - -
27/07:00pm - - - - - ENE 2 4 1 2 - - -
27/06:30pm - - - - - NNE 4 7 2 4 - - -

Other Formats:

Comma delimited format used in spreadsheet applications
http://www.bom.gov.au/fwo/IDW60801/IDW60801.95620.axf

JavaScript Object Notation format (JSON) in row-major order
http://www.bom.gov.au/fwo/IDW60801/IDW60801.95620.json